Charleston, SC

12:14 AM EDT en Mayo 24, 2017 (GMT -0400)
Charleston Executive | | Change Station

Alt 16 ft 32.70 °N, 80.00 °W | Updated 19 minutes ago

Tormenta
Tormenta
72 ° F
Sensación térmica 72 ° F
N
8
Viento Variable Viento desde SO
Gusts 14 mph

Hoy
Alta -- | Baja -- ° F
--% Posibilidad de precipitaciones
Ayer
Alta -- | Baja -- ° F
Precip. -- pul
Presión 29.71 pul
Visibilidad 8.0 Millas
Nubes Baja 200 ft
Baja 3000 ft
Nubes dispersas 4600 ft
Punto de rocío 72 ° F
Humedad 100%
Precipitaciones 4.50 pul
Espesor de la nieve No disponible.
6:15 AM 8:18 PM
Creciente menguante, 4% visible
METAR KJZI 240355Z AUTO 22007G12KT 8SM TS FEW002 FEW030 SCT046 22/22 A2971 RMK AO2 LTG DSNT E AND SE
Presión 29.71 pul
Visibilidad 8.0 Millas
Nubes Baja 200 ft
Baja 3000 ft
Nubes dispersas 4600 ft
Punto de rocío 72 ° F
Humedad 100%
Precipitaciones 4.50 pul
Espesor de la nieve No disponible.
6:15 AM 8:18 PM
Creciente menguante, 4% visible
METAR KJZI 240355Z AUTO 22007G12KT 8SM TS FEW002 FEW030 SCT046 22/22 A2971 RMK AO2 LTG DSNT E AND SE

Get Severe Weather Alerts

Thanks for signing up!

Be on the lookout for a verification email in your inbox.

You'll start receiving the daily forecast at 6 AM.

×

10-Day Weather Forecast

Almanac

Astronomía

May. 24, 2017 Salida Puesta
Hora real
Crepúsculo civil
Crepúsculo náutico
Crepúsculo astronómico
Luna
Horas de luz
Horas de luz
Tomorrow will be .
, % of the Moon is Illuminated

Extremos de hoy

Máximos del estado Bajos del estado

Community

WunderPhotos

Category 6

Welcome to Category 6. This is the collective home for Weather Underground's featured writeups by Dr. Jeff Masters (right), Bob Henson (left), Chris Burt, and other regular contributors.

Nearby

Calidad del aire

  Calidad del aire Índice AQ Contaminante
Not available.

Grosos de nieve

Estación Profundido Altura

Actividad de terremotos

Ciudad Distance Mag. Tiempo y dato
Magnitud mínima muestra es 2,5.

Temperaturas de aguas costeras

Lugar Temperatura

Stations

Estaciones meteorológicas cercanas

Ubicación de la estación Temp. Vientos helados Punto de rocío Humedad Viento Precip. Alt Actualizado Tipo
                   

Watches & Warnings

There are currently no watches in effect.